Time;durP1;ratioP1;P1;durP2;ratioP2;P2;SDS_P1;SDS_P2;PMS_P1;PMS_P2;Temp;Humidity;BMP_temperature;BMP_pressure;BME280_temperature;BME280_humidity;BME280_pressure;Samples;Min_cycle;Max_cycle;Signal;HPM_P1;HPM_P2
2023/03/13 00:01:19;;;;;;;3.38;0.32;;;10.90;99.90;;;;;;5055516;28;20636;-75
2023/03/13 00:03:45;;;;;;;;;;;10.90;99.90;;;;;;5055895;28;20032;-74
2023/03/13 00:06:11;;;;;;;4.32;2.08;;;11.00;99.90;;;;;;5055438;28;20257;-74
2023/03/13 00:08:38;;;;;;;1.45;1.02;;;11.00;99.90;;;;;;5053976;28;20025;-74
2023/03/13 00:11:09;;;;;;;1.55;0.65;;;11.00;99.90;;;;;;5055417;28;20069;-75
2023/03/13 00:13:35;;;;;;;18.25;2.05;;;11.00;99.90;;;;;;5055272;28;20033;-74
2023/03/13 00:16:03;;;;;;;10.48;2.10;;;11.10;99.90;;;;;;5055270;28;20507;-74
2023/03/13 00:18:29;;;;;;;7.05;1.75;;;11.10;99.90;;;;;;5055166;28;20078;-74
2023/03/13 00:21:08;;;;;;;10.30;2.00;;;11.10;99.90;;;;;;5055198;28;20553;-74
2023/03/13 00:23:36;;;;;;;1.60;0.95;;;11.10;99.90;;;;;;5054671;28;20025;-74
2023/03/13 00:26:07;;;;;;;6.60;1.65;;;11.10;99.90;;;;;;5055115;28;20032;-74
2023/03/13 00:28:34;;;;;;;4.50;1.15;;;11.10;99.90;;;;;;5054659;28;20039;-74
2023/03/13 00:31:05;;;;;;;16.05;3.40;;;11.10;99.90;;;;;;5055686;28;20024;-74
2023/03/13 00:33:33;;;;;;;3.47;1.63;;;11.10;99.90;;;;;;5054727;28;20033;-74
2023/03/13 00:36:04;;;;;;;7.90;4.03;;;11.10;99.90;;;;;;5087309;27;20021;-74
2023/03/13 00:38:30;;;;;;;0.95;0.75;;;11.20;99.90;;;;;;5054181;28;20025;-74
2023/03/13 00:41:08;;;;;;;11.25;2.60;;;11.20;99.90;;;;;;5054773;28;20025;-74
2023/03/13 00:43:34;;;;;;;3.95;1.08;;;11.30;99.90;;;;;;5034374;28;20018;-74
2023/03/13 00:46:00;;;;;;;7.78;1.45;;;11.20;99.90;;;;;;5054707;28;20025;-74
2023/03/13 00:48:26;;;;;;;5.57;2.17;;;11.20;99.90;;;;;;5054732;28;20031;-74
2023/03/13 00:50:53;;;;;;;2.72;1.52;;;11.30;99.90;;;;;;5053861;28;20036;-74
2023/03/13 00:53:19;;;;;;;7.35;2.40;;;11.30;99.90;;;;;;5053402;28;20020;-73
2023/03/13 00:55:56;;;;;;;4.90;2.17;;;11.30;99.90;;;;;;5036620;28;20523;-74
2023/03/13 00:58:22;;;;;;;2.17;1.40;;;11.30;99.90;;;;;;5054570;28;20036;-74
2023/03/13 01:00:48;;;;;;;10.88;2.92;;;11.40;99.90;;;;;;5052634;28;20040;-74
2023/03/13 01:03:14;;;;;;;2.10;1.27;;;11.30;99.90;;;;;;5053144;28;20078;-73
2023/03/13 01:05:41;;;;;;;3.70;2.08;;;11.40;99.90;;;;;;5053866;28;20108;-74
2023/03/13 01:08:07;;;;;;;2.88;2.47;;;11.50;99.90;;;;;;5053086;28;20017;-73
2023/03/13 01:10:33;;;;;;;2.70;1.60;;;11.40;99.90;;;;;;5054017;28;20040;-74
2023/03/13 01:12:59;;;;;;;15.57;4.30;;;11.50;99.90;;;;;;5052909;28;20027;-74
2023/03/13 01:15:25;;;;;;;1.98;1.27;;;11.50;99.90;;;;;;5053006;28;20036;-74
2023/03/13 01:17:51;;;;;;;8.73;3.03;;;11.60;99.90;;;;;;5054553;28;20017;-73
2023/03/13 01:20:17;;;;;;;3.65;2.30;;;11.60;99.90;;;;;;5053506;28;20527;-74
2023/03/13 01:22:43;;;;;;;9.57;2.25;;;11.60;99.90;;;;;;5053861;28;20029;-74
2023/03/13 01:25:09;;;;;;;12.50;2.20;;;11.70;99.90;;;;;;5052681;28;20024;-74
2023/03/13 01:27:34;;;;;;;4.22;2.47;;;11.80;99.90;;;;;;5052535;28;20061;-74
2023/03/13 01:30:00;;;;;;;2.00;1.50;;;11.80;99.90;;;;;;5052267;28;20025;-74
2023/03/13 01:32:26;;;;;;;6.35;2.92;;;11.70;99.90;;;;;;5052672;28;20106;-74
2023/03/13 01:34:52;;;;;;;5.57;3.05;;;11.80;99.90;;;;;;5032187;28;20172;-74
2023/03/13 01:37:17;;;;;;;15.18;2.85;;;11.80;99.90;;;;;;5085382;28;20025;-74
2023/03/13 01:39:43;;;;;;;7.97;3.45;;;11.90;99.90;;;;;;5085668;28;20036;-74
2023/03/13 01:42:09;;;;;;;16.23;0.98;;;11.90;99.90;;;;;;5052283;28;20044;-74
2023/03/13 01:44:52;;;;;;;3.47;2.58;;;11.90;99.90;;;;;;5053561;28;20108;-75
2023/03/13 01:47:18;;;;;;;10.93;4.38;;;12.00;99.90;;;;;;5052018;28;20025;-74
2023/03/13 01:50:02;;;;;;;4.28;2.17;;;12.00;99.90;;;;;;5050415;28;20029;-75
2023/03/13 01:52:55;;;;;;;12.63;3.55;;;12.00;99.90;;;;;;5052252;28;20025;-75
2023/03/13 01:55:25;;;;;;;3.10;1.90;;;12.00;99.90;;;;;;5033352;28;20396;-74
2023/03/13 01:57:53;;;;;;;9.57;3.78;;;12.00;99.90;;;;;;5052408;28;20118;-75
2023/03/13 02:00:29;;;;;;;16.85;1.40;;;12.00;99.90;;;;;;5051548;28;20477;-74
2023/03/13 02:02:57;;;;;;;8.30;2.22;;;12.10;99.90;;;;;;5068727;28;20061;-75
2023/03/13 02:05:26;;;;;;;11.60;2.20;;;12.10;99.90;;;;;;5052823;28;20059;-75
2023/03/13 02:07:55;;;;;;;4.05;1.48;;;12.10;99.90;;;;;;5053071;28;20533;-75
2023/03/13 02:10:23;;;;;;;6.75;2.97;;;12.10;99.90;;;;;;5051611;28;20131;-75
2023/03/13 02:12:50;;;;;;;3.25;2.50;;;12.20;99.90;;;;;;5053107;28;20143;-74
2023/03/13 02:15:22;;;;;;;5.35;2.42;;;12.30;99.90;;;;;;5053046;28;20036;-75
2023/03/13 02:17:49;;;;;;;8.20;3.38;;;12.30;99.90;;;;;;5051493;28;20025;-74
2023/03/13 02:20:17;;;;;;;5.82;3.28;;;12.30;99.90;;;;;;5051470;28;20080;-75
2023/03/13 02:22:47;;;;;;;2.90;2.03;;;12.40;99.90;;;;;;5051363;28;20078;-74
2023/03/13 02:25:22;;;;;;;4.60;2.20;;;12.50;99.90;;;;;;5051697;28;20025;-74
2023/03/13 02:28:02;;;;;;;7.93;3.13;;;12.50;99.90;;;;;;5051535;28;20511;-75
2023/03/13 02:30:30;;;;;;;;;;;12.50;99.90;;;;;;5051482;28;20032;-75
2023/03/13 02:32:56;;;;;;;4.57;3.30;;;12.50;99.90;;;;;;5034300;28;19938;-74
2023/03/13 02:35:23;;;;;;;5.78;1.25;;;12.60;99.90;;;;;;5051483;28;20413;-74
2023/03/13 02:37:54;;;;;;;3.42;1.05;;;12.70;99.90;;;;;;5034606;28;20489;-75
2023/03/13 02:40:25;;;;;;;9.98;3.20;;;12.70;99.90;;;;;;5051306;28;20037;-75
2023/03/13 02:42:54;;;;;;;9.60;3.05;;;12.70;99.90;;;;;;5051122;28;20531;-75
2023/03/13 02:45:20;;;;;;;4.32;3.50;;;12.80;99.90;;;;;;5051369;28;20115;-75
2023/03/13 02:47:47;;;;;;;6.57;2.25;;;12.90;99.90;;;;;;5051057;28;20021;-75
2023/03/13 02:50:13;;;;;;;8.40;3.28;;;12.90;99.90;;;;;;5051259;28;20090;-75
2023/03/13 02:52:44;;;;;;;3.78;1.80;;;12.90;99.90;;;;;;5052332;28;20044;-75
2023/03/13 02:55:31;;;;;;;3.03;2.20;;;12.90;99.90;;;;;;5084899;28;20489;-75
2023/03/13 02:57:57;;;;;;;8.68;2.38;;;13.00;99.90;;;;;;5051079;28;20077;-75
2023/03/13 03:00:25;;;;;;;3.42;2.30;;;13.00;99.90;;;;;;5084536;28;20489;-75
2023/03/13 03:02:53;;;;;;;2.15;1.05;;;13.00;99.90;;;;;;5051871;28;20061;-74
2023/03/13 03:05:19;;;;;;;9.15;1.80;;;13.10;99.90;;;;;;5034798;28;20499;-75
2023/03/13 03:07:45;;;;;;;4.07;2.35;;;13.00;99.90;;;;;;5051168;28;20108;-75
2023/03/13 03:10:11;;;;;;;8.18;1.55;;;13.00;99.90;;;;;;5084595;28;20040;-75
2023/03/13 03:12:37;;;;;;;5.45;1.20;;;13.00;99.90;;;;;;5052135;28;20029;-75
2023/03/13 03:15:03;;;;;;;0.88;0.88;;;13.00;99.90;;;;;;5052180;28;20049;-74
2023/03/13 03:17:30;;;;;;;5.10;2.90;;;13.10;99.90;;;;;;5050871;28;20492;-76
2023/03/13 03:19:56;;;;;;;4.03;2.45;;;13.10;99.90;;;;;;5050895;28;20021;-74
2023/03/13 03:22:22;;;;;;;2.83;2.17;;;13.20;99.90;;;;;;5052335;28;20520;-75
2023/03/13 03:24:48;;;;;;;5.78;2.78;;;13.20;99.90;;;;;;5051133;28;20023;-74
2023/03/13 03:27:14;;;;;;;4.97;2.00;;;13.20;99.90;;;;;;5050671;28;20147;-74
2023/03/13 03:29:45;;;;;;;;;;;13.20;99.90;;;;;;5051408;28;20025;-75
2023/03/13 03:32:11;;;;;;;8.70;3.00;;;13.20;99.90;;;;;;5050762;28;19913;-75
2023/03/13 03:34:37;;;;;;;1.75;1.42;;;13.30;99.90;;;;;;5031133;28;20044;-74
2023/03/13 03:37:03;;;;;;;1.88;1.27;;;13.40;99.90;;;;;;5080928;28;20025;-74
2023/03/13 03:39:29;;;;;;;4.22;1.88;;;13.40;99.90;;;;;;5050573;28;20131;-75
2023/03/13 03:41:55;;;;;;;3.30;1.40;;;13.40;99.90;;;;;;5034383;28;20174;-75
2023/03/13 03:44:22;;;;;;;6.88;2.03;;;13.40;99.90;;;;;;5088341;27;20025;-75
2023/03/13 03:46:53;;;;;;;2.83;1.50;;;13.50;99.90;;;;;;5054403;28;20533;-75
2023/03/13 03:49:20;;;;;;;1.35;0.98;;;13.50;99.90;;;;;;5054403;28;20074;-76
2023/03/13 03:51:47;;;;;;;1.65;1.55;;;13.60;99.90;;;;;;5088304;28;20384;-74
2023/03/13 03:54:14;;;;;;;7.97;1.55;;;13.50;99.90;;;;;;5087877;28;20029;-74
2023/03/13 03:56:40;;;;;;;1.45;1.35;;;13.50;99.90;;;;;;5038037;28;20500;-75
2023/03/13 03:59:05;;;;;;;4.35;1.38;;;13.50;99.90;;;;;;5054305;28;20481;-75
2023/03/13 04:01:43;;;;;;;2.80;1.25;;;13.40;99.90;;;;;;5054247;28;20052;-76
2023/03/13 04:04:10;;;;;;;4.88;1.30;;;13.50;99.90;;;;;;5054205;28;20021;-75
2023/03/13 04:06:37;;;;;;;6.03;2.70;;;13.50;99.90;;;;;;5054493;28;20481;-74
2023/03/13 04:09:05;;;;;;;0.90;0.88;;;13.50;99.90;;;;;;5063735;28;20489;-73
2023/03/13 04:11:32;;;;;;;2.25;1.40;;;13.60;99.90;;;;;;5054170;28;20025;-75
2023/03/13 04:13:57;;;;;;;6.03;2.42;;;13.50;99.90;;;;;;5053805;28;20048;-75
2023/03/13 04:16:24;;;;;;;3.13;2.40;;;13.60;99.90;;;;;;5087923;28;20025;-75
2023/03/13 04:18:52;;;;;;;14.02;0.82;;;13.60;99.90;;;;;;5053981;28;20036;-76
2023/03/13 04:21:18;;;;;;;4.20;2.53;;;13.60;99.90;;;;;;5087411;28;20040;-76
2023/03/13 04:23:49;;;;;;;1.20;0.95;;;13.60;99.90;;;;;;5037761;28;20044;-74
2023/03/13 04:26:15;;;;;;;3.40;1.40;;;13.70;99.90;;;;;;5053929;28;20075;-76
2023/03/13 04:28:42;;;;;;;4.57;2.10;;;13.70;99.90;;;;;;5053449;28;20049;-76
2023/03/13 04:31:10;;;;;;;6.78;2.28;;;13.80;99.90;;;;;;5053863;28;20025;-76
2023/03/13 04:33:52;;;;;;;1.08;0.60;;;13.70;99.90;;;;;;5053435;28;20029;-77
2023/03/13 04:36:44;;;;;;;4.53;1.00;;;13.80;99.90;;;;;;5033965;28;20033;-77
2023/03/13 04:39:25;;;;;;;3.55;1.40;;;13.80;99.90;;;;;;5041552;28;20393;-77
2023/03/13 04:41:57;;;;;;;7.85;1.58;;;13.90;99.90;;;;;;5053524;28;20543;-77
2023/03/13 04:44:34;;;;;;;1.73;1.15;;;13.80;99.90;;;;;;5053373;28;20090;-76
2023/03/13 04:47:20;;;;;;;6.18;1.90;;;13.70;99.90;;;;;;5053348;28;20075;-77
2023/03/13 04:50:05;;;;;;;2.22;1.27;;;13.70;99.90;;;;;;5053380;28;20052;-77
2023/03/13 04:52:59;;;;;;;1.42;1.05;;;13.80;99.90;;;;;;5067804;28;20028;-76
2023/03/13 04:55:51;;;;;;;4.07;1.27;;;13.70;99.90;;;;;;5050002;28;20128;-77
2023/03/13 04:58:39;;;;;;;7.05;2.13;;;13.70;99.90;;;;;;5043160;28;20045;-77
2023/03/13 05:01:33;;;;;;;4.18;1.40;;;13.70;99.90;;;;;;5052988;28;20128;-77
2023/03/13 05:04:02;;;;;;;5.75;1.05;;;13.70;99.90;;;;;;5054558;28;20037;-75
2023/03/13 05:06:51;;;;;;;1.77;1.48;;;13.60;99.90;;;;;;5053163;28;20029;-77
2023/03/13 05:09:35;;;;;;;2.72;1.45;;;13.70;99.90;;;;;;5053333;28;20086;-77
2023/03/13 05:12:19;;;;;;;7.00;1.05;;;13.70;99.90;;;;;;5054381;28;20460;-77
2023/03/13 05:14:59;;;;;;;8.27;2.30;;;13.70;99.90;;;;;;5052754;28;20025;-77
2023/03/13 05:17:44;;;;;;;2.17;0.73;;;13.70;99.90;;;;;;5054271;28;20404;-77
2023/03/13 05:20:32;;;;;;;4.57;1.65;;;13.70;99.90;;;;;;5055079;28;20037;-77
2023/03/13 05:23:20;;;;;;;2.35;1.55;;;13.70;99.90;;;;;;5086102;28;20021;-76
2023/03/13 05:26:01;;;;;;;4.87;1.30;;;13.70;99.90;;;;;;5043027;28;20031;-78
2023/03/13 05:28:48;;;;;;;7.22;1.58;;;13.70;99.90;;;;;;5064428;28;20036;-77
2023/03/13 05:31:22;;;;;;;3.78;1.08;;;13.70;99.90;;;;;;5044387;28;20036;-77
2023/03/13 05:33:47;;;;;;;3.40;1.38;;;13.70;99.90;;;;;;5053817;28;20037;-78
2023/03/13 05:36:39;;;;;;;7.20;1.60;;;13.60;99.90;;;;;;5039344;28;20033;-76
2023/03/13 05:39:37;;;;;;;3.97;1.42;;;13.70;99.90;;;;;;5022170;28;20276;-78
2023/03/13 05:42:29;;;;;;;5.40;1.83;;;13.60;99.90;;;;;;5052816;28;20048;-76
2023/03/13 05:45:02;;;;;;;8.95;2.03;;;13.60;99.90;;;;;;5085883;28;20025;-77
2023/03/13 05:47:54;;;;;;;;;;;13.70;99.90;;;;;;5051877;28;20033;-77
2023/03/13 05:50:38;;;;;;;1.27;1.02;;;13.60;99.90;;;;;;5053759;28;19908;-77
2023/03/13 05:53:22;;;;;;;6.15;2.45;;;13.60;99.90;;;;;;5053620;28;20171;-78
2023/03/13 05:56:11;;;;;;;2.50;1.27;;;13.60;99.90;;;;;;5037973;28;20033;-77
2023/03/13 05:59:00;;;;;;;11.50;2.05;;;13.60;99.90;;;;;;5052697;28;20033;-78
2023/03/13 06:01:37;;;;;;;4.45;1.33;;;13.60;99.90;;;;;;5051815;28;20033;-78
2023/03/13 06:04:12;;;;;;;8.77;1.88;;;13.70;99.90;;;;;;5052028;28;20017;-77
2023/03/13 06:06:39;;;;;;;10.02;2.05;;;13.70;99.90;;;;;;5034421;28;20064;-76
2023/03/13 06:09:06;;;;;;;2.80;1.52;;;13.70;99.90;;;;;;5051969;28;20430;-73
2023/03/13 06:11:33;;;;;;;4.95;1.63;;;13.60;99.90;;;;;;5051352;28;20396;-74
2023/03/13 06:13:59;;;;;;;6.50;1.75;;;13.60;99.90;;;;;;5043208;28;20029;-76
2023/03/13 06:16:32;;;;;;;4.57;1.20;;;13.60;99.90;;;;;;5061956;28;20025;-73
2023/03/13 06:19:10;;;;;;;6.47;1.35;;;13.60;99.90;;;;;;5053157;28;20032;-74
2023/03/13 06:21:36;;;;;;;0.63;0.60;;;13.70;99.90;;;;;;5052484;28;20044;-73
2023/03/13 06:24:03;;;;;;;8.43;1.75;;;13.60;99.90;;;;;;5052721;28;20021;-73
2023/03/13 06:26:28;;;;;;;6.38;1.45;;;13.60;99.90;;;;;;5051879;28;20107;-74
2023/03/13 06:28:54;;;;;;;1.55;0.80;;;13.60;99.90;;;;;;5050535;28;20418;-74
2023/03/13 06:31:20;;;;;;;6.88;0.60;;;13.60;99.90;;;;;;5047880;28;20457;-76
2023/03/13 06:33:45;;;;;;;3.53;1.30;;;13.70;99.90;;;;;;5051414;28;20055;-76
2023/03/13 06:36:12;;;;;;;1.30;0.50;;;13.60;99.90;;;;;;5052546;28;20481;-77
2023/03/13 06:38:37;;;;;;;2.20;1.48;;;13.60;99.90;;;;;;5052394;28;20036;-76
2023/03/13 06:41:04;;;;;;;3.85;1.88;;;13.50;99.90;;;;;;5052187;28;20028;-77
2023/03/13 06:43:29;;;;;;;1.17;0.70;;;13.50;99.90;;;;;;5052738;28;20025;-77
2023/03/13 06:45:55;;;;;;;2.83;1.48;;;13.50;99.90;;;;;;5052655;28;20031;-79
2023/03/13 06:48:22;;;;;;;8.82;1.42;;;13.50;99.90;;;;;;5052652;28;20385;-78
2023/03/13 06:50:49;;;;;;;10.20;3.28;;;13.50;99.90;;;;;;5052516;28;20104;-79
2023/03/13 06:53:17;;;;;;;7.20;3.45;;;13.50;99.90;;;;;;5052400;28;20028;-77
2023/03/13 06:55:44;;;;;;;9.23;2.15;;;13.40;99.90;;;;;;5051304;28;20036;-75
2023/03/13 06:58:09;;;;;;;2.65;1.63;;;13.50;99.90;;;;;;5052344;28;20117;-81
2023/03/13 07:00:35;;;;;;;6.55;2.70;;;13.50;99.90;;;;;;5052655;28;20041;-80
2023/03/13 07:03:01;;;;;;;5.93;1.48;;;13.40;99.90;;;;;;5042710;28;20060;-78
2023/03/13 07:05:27;;;;;;;5.68;1.40;;;13.40;99.90;;;;;;5044291;28;20029;-77
2023/03/13 07:07:52;;;;;;;13.93;1.45;;;13.40;99.90;;;;;;5061725;28;20025;-79
2023/03/13 07:10:18;;;;;;;9.75;1.83;;;13.40;99.90;;;;;;5054256;28;20104;-77
2023/03/13 07:12:44;;;;;;;3.08;1.33;;;13.40;99.90;;;;;;5050060;28;20025;-78
2023/03/13 07:15:10;;;;;;;2.67;1.02;;;13.50;99.90;;;;;;5055164;28;20033;-77
2023/03/13 07:17:36;;;;;;;10.38;1.55;;;13.50;99.90;;;;;;5055376;28;20036;-78
2023/03/13 07:20:04;;;;;;;5.55;0.88;;;13.60;99.90;;;;;;5059837;28;20040;-78
2023/03/13 07:22:30;;;;;;;6.60;1.98;;;13.50;99.90;;;;;;5032588;28;20389;-78
2023/03/13 07:24:55;;;;;;;6.97;1.83;;;13.60;99.90;;;;;;5060323;28;20021;-78
2023/03/13 07:27:21;;;;;;;3.33;1.20;;;13.60;99.90;;;;;;5047915;28;20355;-78
2023/03/13 07:29:48;;;;;;;8.93;2.35;;;13.70;99.90;;;;;;5052879;28;20396;-75
2023/03/13 07:32:14;;;;;;;5.95;2.65;;;13.80;99.90;;;;;;5050297;28;20029;-78
2023/03/13 07:34:43;;;;;;;5.70;1.48;;;13.80;99.90;;;;;;5055888;28;20036;-73
2023/03/13 07:37:11;;;;;;;3.85;1.05;;;13.90;99.90;;;;;;5059171;28;20109;-74
2023/03/13 07:39:36;;;;;;;1.75;0.85;;;13.90;99.90;;;;;;5060156;28;20078;-77
2023/03/13 07:42:02;;;;;;;5.18;1.77;;;13.90;99.90;;;;;;5064678;28;20384;-74
2023/03/13 07:44:28;;;;;;;6.35;1.95;;;13.90;99.90;;;;;;5057862;28;20017;-75
2023/03/13 07:46:54;;;;;;;10.88;1.45;;;13.80;99.90;;;;;;5054316;28;20499;-76
2023/03/13 07:49:19;;;;;;;2.17;1.63;;;13.80;99.90;;;;;;5059482;28;20033;-76
2023/03/13 07:51:47;;;;;;;10.45;1.63;;;13.80;99.90;;;;;;5048536;28;20021;-74
2023/03/13 07:54:13;;;;;;;2.67;1.10;;;13.60;99.90;;;;;;5046872;28;20029;-74
2023/03/13 07:56:39;;;;;;;7.05;2.17;;;13.70;99.90;;;;;;5054304;28;20036;-74
2023/03/13 07:59:05;;;;;;;6.97;1.83;;;13.70;99.90;;;;;;5047038;28;20014;-73
2023/03/13 08:01:30;;;;;;;3.33;1.38;;;13.70;99.90;;;;;;5046574;28;20481;-73
2023/03/13 08:03:57;;;;;;;4.57;1.33;;;13.70;99.90;;;;;;5047844;28;20111;-74
2023/03/13 08:06:25;;;;;;;2.78;1.15;;;13.70;99.90;;;;;;5054685;28;20477;-73
2023/03/13 08:08:51;;;;;;;0.13;0.13;;;13.80;99.90;;;;;;5055346;28;20036;-74
2023/03/13 08:11:19;;;;;;;4.53;0.98;;;13.90;99.90;;;;;;5055629;28;20021;-74
2023/03/13 08:13:46;;;;;;;13.82;2.13;;;14.00;99.90;;;;;;5055562;28;20031;-74
2023/03/13 08:16:17;;;;;;;4.75;1.83;;;13.90;99.90;;;;;;5054045;28;20096;-73
2023/03/13 08:18:45;;;;;;;3.67;0.85;;;14.00;99.90;;;;;;5054232;28;20032;-78
2023/03/13 08:21:16;;;;;;;0.93;0.77;;;14.10;99.90;;;;;;5054200;28;20045;-82
2023/03/13 08:23:42;;;;;;;3.78;1.25;;;14.20;99.90;;;;;;5053657;28;20024;-77
2023/03/13 08:26:14;;;;;;;3.92;1.30;;;14.20;99.90;;;;;;5055079;28;20377;-77
2023/03/13 08:28:41;;;;;;;3.95;0.77;;;14.10;99.90;;;;;;5054116;28;20041;-76
2023/03/13 08:31:18;;;;;;;5.35;1.45;;;14.20;99.90;;;;;;5054875;28;20036;-76
2023/03/13 08:33:45;;;;;;;2.60;1.00;;;14.20;99.90;;;;;;5053440;28;20029;-75
2023/03/13 08:36:16;;;;;;;9.55;2.20;;;14.40;99.90;;;;;;5054301;28;20043;-74
2023/03/13 08:38:43;;;;;;;4.37;2.07;;;14.50;99.90;;;;;;5048765;28;20037;-75
2023/03/13 08:41:09;;;;;;;8.38;2.45;;;14.40;99.90;;;;;;5055941;28;20059;-77
2023/03/13 08:43:35;;;;;;;7.15;2.47;;;14.40;99.90;;;;;;5053270;28;20028;-73
2023/03/13 08:46:01;;;;;;;1.60;0.93;;;14.20;99.90;;;;;;5063877;28;20020;-74
2023/03/13 08:48:27;;;;;;;5.55;1.85;;;14.30;99.90;;;;;;5054343;28;20028;-75
2023/03/13 08:51:08;;;;;;;6.00;1.50;;;14.30;99.90;;;;;;5054283;28;20394;-76
2023/03/13 08:53:36;;;;;;;3.53;1.58;;;14.60;99.90;;;;;;5041259;28;20579;-75
2023/03/13 08:56:03;;;;;;;3.45;1.63;;;14.60;99.90;;;;;;5061409;28;20040;-76
2023/03/13 08:58:29;;;;;;;9.50;2.80;;;14.80;99.90;;;;;;5052337;28;20226;-74
2023/03/13 09:01:01;;;;;;;0.88;0.88;;;14.90;99.90;;;;;;5049767;28;20114;-78
2023/03/13 09:03:27;;;;;;;;;;;15.00;99.90;;;;;;5048953;28;20021;-78
2023/03/13 09:05:55;;;;;;;5.22;1.90;;;15.20;99.90;;;;;;5044405;28;20285;-78
2023/03/13 09:08:20;;;;;;;2.88;1.15;;;15.30;99.90;;;;;;5052947;28;20025;-76
2023/03/13 09:10:46;;;;;;;6.63;1.55;;;15.50;99.90;;;;;;5058636;28;20036;-79
2023/03/13 09:13:12;;;;;;;1.30;0.95;;;15.40;99.90;;;;;;5037827;28;20055;-77
2023/03/13 09:15:38;;;;;;;4.57;1.70;;;15.60;99.90;;;;;;5052608;28;20094;-78
2023/03/13 09:18:05;;;;;;;5.47;1.63;;;15.50;99.90;;;;;;5056159;28;20032;-79
2023/03/13 09:20:31;;;;;;;4.35;1.27;;;15.40;99.90;;;;;;5052664;28;20028;-79
2023/03/13 09:22:56;;;;;;;2.92;0.63;;;15.50;99.90;;;;;;5051970;28;20021;-78
2023/03/13 09:25:22;;;;;;;5.95;1.88;;;15.40;99.90;;;;;;5046698;28;20096;-77
2023/03/13 09:27:48;;;;;;;5.22;0.85;;;15.40;99.90;;;;;;5037852;28;20044;-81
2023/03/13 09:30:13;;;;;;;1.33;1.02;;;15.50;99.90;;;;;;5032826;28;20056;-78
2023/03/13 09:32:39;;;;;;;3.72;1.10;;;15.80;99.90;;;;;;5028647;28;20037;-78
2023/03/13 09:35:05;;;;;;;11.13;1.67;;;15.70;99.90;;;;;;5049740;28;20121;-77
2023/03/13 09:37:31;;;;;;;7.03;2.13;;;15.60;99.90;;;;;;5052977;28;20040;-78
2023/03/13 09:39:58;;;;;;;4.13;1.48;;;15.50;99.90;;;;;;5052047;28;20047;-77
2023/03/13 09:42:37;;;;;;;2.40;1.23;;;15.60;99.90;;;;;;5052051;28;20079;-78
2023/03/13 09:45:11;;;;;;;2.50;1.00;;;15.50;99.90;;;;;;5052939;28;20055;-78
2023/03/13 09:47:52;;;;;;;3.08;1.33;;;15.60;99.90;;;;;;5050937;28;20040;-77
2023/03/13 09:50:28;;;;;;;3.53;1.13;;;15.50;99.90;;;;;;5052687;28;20120;-77
2023/03/13 09:53:06;;;;;;;6.40;1.48;;;15.60;99.90;;;;;;5048242;28;20033;-78
2023/03/13 09:55:35;;;;;;;3.15;1.02;;;15.70;99.90;;;;;;5049454;28;20025;-78
2023/03/13 09:58:17;;;;;;;2.25;1.00;;;15.80;99.90;;;;;;5047715;28;20048;-78
2023/03/13 10:01:04;;;;;;;5.88;1.35;;;15.70;99.90;;;;;;5046449;28;20474;-78
2023/03/13 10:03:43;;;;;;;3.35;1.27;;;15.70;99.90;;;;;;5052213;28;20497;-77
2023/03/13 10:06:19;;;;;;;0.45;0.32;;;15.60;99.90;;;;;;5048422;28;20056;-80
2023/03/13 10:08:45;;;;;;;11.05;1.23;;;15.60;99.90;;;;;;5048691;28;20029;-78
2023/03/13 10:11:39;;;;;;;3.83;0.82;;;15.50;99.90;;;;;;5051300;28;20032;-77
2023/03/13 10:14:13;;;;;;;3.40;0.82;;;15.70;99.90;;;;;;5052727;28;20017;-77
2023/03/13 10:17:14;;;;;;;0.65;0.55;;;15.80;99.90;;;;;;5052093;28;20428;-78
2023/03/13 10:19:42;;;;;;;5.90;1.25;;;15.80;99.90;;;;;;5048033;28;20492;-78
2023/03/13 10:22:17;;;;;;;5.38;0.70;;;15.70;99.90;;;;;;5046427;28;20124;-77
2023/03/13 10:24:54;;;;;;;1.67;1.00;;;15.60;99.90;;;;;;5039181;28;20032;-78
2023/03/13 10:27:19;;;;;;;3.75;0.68;;;15.60;99.90;;;;;;5047558;28;20033;-77
2023/03/13 10:29:45;;;;;;;4.43;0.57;;;15.90;99.90;;;;;;5050268;28;20493;-76
2023/03/13 10:32:17;;;;;;;1.75;1.10;;;15.90;99.90;;;;;;5041685;28;20459;-78
2023/03/13 10:34:59;;;;;;;;;;;15.90;99.90;;;;;;5045297;28;20029;-77
2023/03/13 10:37:29;;;;;;;;;;;16.20;99.90;;;;;;5052036;28;19913;-77
2023/03/13 10:40:10;;;;;;;1.55;0.50;;;16.20;99.90;;;;;;5051803;28;20022;-77
2023/03/13 10:42:39;;;;;;;1.43;0.70;;;16.50;99.90;;;;;;5052116;28;20055;-84
2023/03/13 10:45:06;;;;;;;0.95;0.60;;;16.70;99.90;;;;;;5042508;28;20283;-85
2023/03/13 10:47:36;;;;;;;1.77;0.80;;;16.80;99.90;;;;;;5053712;28;20040;-84
2023/03/13 10:50:03;;;;;;;0.28;0.28;;;16.90;99.90;;;;;;5045040;28;20098;-83
2023/03/13 10:52:46;;;;;;;2.97;1.13;;;17.00;99.90;;;;;;5049986;28;20406;-83
2023/03/13 10:55:17;;;;;;;3.42;1.50;;;16.90;99.90;;;;;;5052118;28;20382;-85
2023/03/13 10:57:51;;;;;;;0.55;0.35;;;16.70;99.90;;;;;;5050490;28;20037;-85
2023/03/13 11:00:37;;;;;;;11.68;1.10;;;16.60;99.90;;;;;;5051316;28;20035;-78
2023/03/13 11:03:32;;;;;;;1.85;0.65;;;16.50;99.90;;;;;;5051775;28;20045;-84
2023/03/13 11:06:00;;;;;;;5.20;1.30;;;16.50;99.90;;;;;;5049209;28;20049;-83
2023/03/13 11:08:32;;;;;;;3.63;0.63;;;16.60;99.90;;;;;;5051498;28;20469;-83
2023/03/13 11:11:03;;;;;;;0.22;0.22;;;16.50;99.90;;;;;;5052097;28;20382;-81
2023/03/13 11:13:39;;;;;;;0.10;0.10;;;16.40;99.90;;;;;;5051556;28;20033;-80
2023/03/13 11:16:18;;;;;;;2.72;1.55;;;16.60;99.90;;;;;;5051631;28;20111;-79
2023/03/13 11:19:11;;;;;;;7.57;1.52;;;16.60;99.90;;;;;;5050306;28;20036;-79
2023/03/13 11:22:26;;;;;;;4.55;1.05;;;16.60;99.90;;;;;;5051483;28;20040;-79
2023/03/13 11:25:16;;;;;;;1.95;0.77;;;16.40;99.90;;;;;;5041869;28;20052;-78
2023/03/13 11:27:49;;;;;;;0.80;0.50;;;16.60;99.90;;;;;;5051147;28;20091;-79
2023/03/13 11:30:48;;;;;;;1.25;0.50;;;17.20;99.90;;;;;;5051405;28;20036;-80
2023/03/13 11:34:03;;;;;;;1.48;0.32;;;17.60;99.90;;;;;;5051691;28;20033;-80
2023/03/13 11:36:32;;;;;;;4.60;0.65;;;17.40;99.90;;;;;;5051299;28;20025;-79
2023/03/13 11:39:16;;;;;;;1.42;0.40;;;17.80;99.90;;;;;;5050217;28;20096;-79
2023/03/13 11:42:09;;;;;;;4.90;1.13;;;17.40;99.90;;;;;;5049665;28;20120;-79
2023/03/13 11:45:00;;;;;;;0.32;0.20;;;17.70;99.90;;;;;;5039882;28;20025;-78
2023/03/13 11:47:51;;;;;;;6.50;0.98;;;17.70;99.90;;;;;;5051286;28;20029;-79
2023/03/13 11:50:35;;;;;;;2.90;0.60;;;18.00;99.90;;;;;;5051478;28;20056;-80
2023/03/13 11:53:08;;;;;;;2.17;0.50;;;18.80;99.90;;;;;;5039310;28;20107;-74
2023/03/13 11:55:59;;;;;;;2.20;0.65;;;18.60;99.90;;;;;;5051187;28;20064;-78
2023/03/13 11:58:40;;;;;;;3.75;0.88;;;18.30;99.90;;;;;;5049330;28;20030;-78
2023/03/13 12:01:22;;;;;;;1.33;0.65;;;18.00;99.90;;;;;;5045851;28;20370;-80
2023/03/13 12:04:24;;;;;;;6.70;1.23;;;18.40;99.90;;;;;;5050871;28;20029;-79
2023/03/13 12:06:59;;;;;;;2.33;0.50;;;18.40;99.90;;;;;;5042588;28;20389;-80
2023/03/13 12:09:53;;;;;;;5.40;1.27;;;18.60;99.40;;;;;;5053420;28;20021;-78
2023/03/13 12:12:40;;;;;;;3.47;0.90;;;18.40;99.10;;;;;;5043520;28;20032;-80
2023/03/13 12:15:30;;;;;;;0.52;0.52;;;18.50;99.40;;;;;;5053385;28;20025;-80
2023/03/13 12:18:24;;;;;;;1.40;0.80;;;18.50;99.30;;;;;;5054761;28;20032;-80
2023/03/13 12:21:21;;;;;;;10.20;1.38;;;19.00;99.10;;;;;;5039692;28;20045;-78
2023/03/13 12:24:12;;;;;;;2.33;1.05;;;18.60;99.00;;;;;;5054081;28;20111;-78
2023/03/13 12:26:50;;;;;;;12.15;1.77;;;18.90;98.30;;;;;;5052878;28;20040;-78
2023/03/13 12:29:36;;;;;;;1.55;0.65;;;19.30;98.50;;;;;;5053382;28;20025;-78
2023/03/13 12:32:35;;;;;;;4.30;0.98;;;19.30;98.30;;;;;;5053721;28;20025;-78
2023/03/13 12:35:14;;;;;;;1.48;0.73;;;19.00;98.20;;;;;;5052753;28;20497;-78
2023/03/13 12:38:13;;;;;;;5.93;1.60;;;18.80;97.90;;;;;;5054635;28;20073;-78
2023/03/13 12:41:12;;;;;;;6.70;0.73;;;19.70;97.60;;;;;;5037347;28;20052;-76
2023/03/13 12:43:41;;;;;;;1.10;0.40;;;19.20;97.30;;;;;;5054820;28;20554;-77
2023/03/13 12:46:23;;;;;;;3.20;1.00;;;19.40;97.70;;;;;;5054676;28;20020;-77
2023/03/13 12:48:58;;;;;;;1.17;0.35;;;19.60;97.10;;;;;;5054831;28;20108;-76
2023/03/13 12:51:51;;;;;;;2.92;1.08;;;19.20;97.80;;;;;;5053523;28;20477;-76
2023/03/13 12:54:51;;;;;;;5.63;1.52;;;18.90;97.60;;;;;;5053248;28;20108;-76
2023/03/13 12:58:02;;;;;;;2.28;0.85;;;19.40;98.00;;;;;;5054345;28;20040;-76
2023/03/13 13:00:30;;;;;;;7.00;1.90;;;19.10;98.00;;;;;;5043585;28;20032;-76
2023/03/13 13:03:35;;;;;;;1.55;1.08;;;19.10;98.00;;;;;;5054407;28;20131;-76
2023/03/13 13:06:13;;;;;;;8.15;1.92;;;18.60;98.30;;;;;;5054620;28;20060;-76
2023/03/13 13:08:43;;;;;;;4.43;1.35;;;19.00;96.70;;;;;;5053228;28;20167;-76
2023/03/13 13:11:33;;;;;;;3.28;0.95;;;19.40;96.50;;;;;;5047543;28;20047;-78
2023/03/13 13:14:15;;;;;;;1.25;0.52;;;19.20;96.40;;;;;;5046166;28;20086;-76
2023/03/13 13:16:58;;;;;;;0.60;0.57;;;19.00;97.00;;;;;;5051587;28;20492;-76
2023/03/13 13:19:23;;;;;;;2.75;0.60;;;19.20;96.80;;;;;;5059663;28;20029;-77